Time;durP1;ratioP1;P1;durP2;ratioP2;P2;SDS_P1;SDS_P2;PMS_P1;PMS_P2;Temp;Humidity;BMP_temperature;BMP_pressure;BME280_temperature;BME280_humidity;BME280_pressure;Samples;Min_cycle;Max_cycle;Signal;HPM_P1;HPM_P2
2021/03/14 02:56:23;;;;;;;5.45;1.50;;;23.10;70.60;;;;;;6149643;22;2116893;-71
2021/03/14 02:58:52;;;;;;;3.72;0.90;;;23.10;70.60;;;;;;6242535;23;20000;-70
2021/03/14 03:01:20;;;;;;;5.68;1.40;;;23.10;70.60;;;;;;6241735;23;20027;-68
2021/03/14 03:03:47;;;;;;;4.65;1.20;;;23.10;70.60;;;;;;6242590;23;20000;-69
2021/03/14 03:06:14;;;;;;;4.10;1.20;;;23.10;70.60;;;;;;6241583;23;20086;-71
2021/03/14 03:08:40;;;;;;;4.50;1.10;;;23.10;70.60;;;;;;6242285;23;20062;-70
2021/03/14 03:11:16;;;;;;;4.82;1.02;;;23.10;70.60;;;;;;6241366;23;20004;-70
2021/03/14 03:13:43;;;;;;;3.95;1.10;;;23.10;70.60;;;;;;6242251;23;20039;-69
2021/03/14 03:16:14;;;;;;;3.00;1.15;;;23.10;70.50;;;;;;6240504;23;20006;-70
2021/03/14 03:18:42;;;;;;;5.50;1.70;;;23.10;70.50;;;;;;6240595;23;20000;-68
2021/03/14 03:21:10;;;;;;;5.78;1.65;;;23.10;70.50;;;;;;6242304;23;20007;-69
2021/03/14 03:23:37;;;;;;;10.15;1.48;;;23.10;70.40;;;;;;6241356;23;20004;-70
2021/03/14 03:26:06;;;;;;;5.57;1.77;;;23.10;70.40;;;;;;6242231;23;20098;-71
2021/03/14 03:28:33;;;;;;;3.83;1.15;;;23.10;70.50;;;;;;6241101;23;20463;-70
2021/03/14 03:31:01;;;;;;;5.05;1.10;;;23.00;70.30;;;;;;6242194;23;19997;-70
2021/03/14 03:33:27;;;;;;;4.82;1.10;;;23.00;70.30;;;;;;6242144;23;19999;-71
2021/03/14 03:35:54;;;;;;;2.95;1.23;;;23.00;70.40;;;;;;6241314;23;20000;-71
2021/03/14 03:38:20;;;;;;;3.70;1.40;;;23.00;70.40;;;;;;6242158;23;20085;-70
2021/03/14 03:40:47;;;;;;;4.47;1.48;;;23.00;70.30;;;;;;6239328;23;20525;-70
2021/03/14 03:43:37;;;;;;;7.18;1.40;;;23.00;70.30;;;;;;6240652;23;20010;-69
2021/03/14 03:46:08;;;;;;;4.28;1.42;;;23.00;70.40;;;;;;6241344;23;20039;-71
2021/03/14 03:48:56;;;;;;;2.15;1.20;;;23.00;70.40;;;;;;6241754;23;20023;-69
2021/03/14 03:51:28;;;;;;;8.52;1.20;;;23.00;70.50;;;;;;6241883;23;20004;-70
2021/03/14 03:53:58;;;;;;;5.68;1.23;;;23.00;70.50;;;;;;6240812;23;20046;-71
2021/03/14 03:56:26;;;;;;;3.92;1.20;;;23.00;70.40;;;;;;6241860;23;20034;-70
2021/03/14 03:58:53;;;;;;;4.68;1.40;;;23.00;70.40;;;;;;6240738;23;20424;-71
2021/03/14 04:01:21;;;;;;;3.78;1.05;;;23.00;70.40;;;;;;6242160;23;20028;-68
2021/03/14 04:03:49;;;;;;;12.07;2.05;;;22.90;70.40;;;;;;6213062;23;20005;-70
2021/03/14 04:06:17;;;;;;;4.32;1.10;;;22.90;70.40;;;;;;6240607;23;20304;-70
2021/03/14 04:08:46;;;;;;;4.70;1.63;;;22.90;70.40;;;;;;6241816;23;20075;-70
2021/03/14 04:11:17;;;;;;;4.82;1.30;;;22.90;70.40;;;;;;6241088;23;20008;-70
2021/03/14 04:13:45;;;;;;;7.82;1.70;;;22.90;70.30;;;;;;6242164;23;20397;-71
2021/03/14 04:16:14;;;;;;;7.22;1.13;;;22.90;70.20;;;;;;6241116;23;19997;-70
2021/03/14 04:18:42;;;;;;;7.15;1.35;;;22.90;70.20;;;;;;6241189;23;20427;-71
2021/03/14 04:21:14;;;;;;;3.65;1.23;;;22.90;70.10;;;;;;6241764;23;20075;-71
2021/03/14 04:23:43;;;;;;;2.20;0.77;;;22.90;69.90;;;;;;6240811;23;20007;-70
2021/03/14 04:26:10;;;;;;;3.47;1.20;;;22.90;69.80;;;;;;6241896;23;20083;-70
2021/03/14 04:28:38;;;;;;;5.53;1.00;;;22.90;69.60;;;;;;6239295;23;19996;-68
2021/03/14 04:31:05;;;;;;;3.97;1.20;;;22.90;69.50;;;;;;6241839;23;20323;-70
2021/03/14 04:33:33;;;;;;;4.88;1.30;;;22.90;69.30;;;;;;6241147;23;20339;-69
2021/03/14 04:36:39;;;;;;;4.85;1.10;;;22.90;69.20;;;;;;6240736;23;20007;-70
2021/03/14 04:39:45;;;;;;;8.25;4.80;;;22.90;69.00;;;;;;6242146;23;20023;-70
2021/03/14 04:42:31;;;;;;;;;;;22.90;68.90;;;;;;6241475;23;20002;-71
2021/03/14 04:45:37;;;;;;;7.68;4.20;;;22.90;68.90;;;;;;6240234;23;19955;-71
2021/03/14 04:48:44;;;;;;;9.23;4.35;;;22.90;68.90;;;;;;6242193;23;20012;-70
2021/03/14 04:51:50;;;;;;;5.50;2.90;;;22.80;68.70;;;;;;6243034;23;20028;-73
2021/03/14 04:54:57;;;;;;;4.82;2.08;;;22.80;68.70;;;;;;6240475;23;20450;-70
2021/03/14 04:58:03;;;;;;;5.55;2.40;;;22.80;68.50;;;;;;6242780;23;20466;-70
2021/03/14 05:01:09;;;;;;;6.80;1.35;;;22.80;68.50;;;;;;6243988;23;20000;-70
2021/03/14 05:04:16;;;;;;;6.22;2.20;;;22.80;68.50;;;;;;6242235;23;20075;-71
2021/03/14 05:07:23;;;;;;;4.70;1.98;;;22.80;68.50;;;;;;6242487;23;20019;-70
2021/03/14 05:10:29;;;;;;;4.47;1.70;;;22.80;68.50;;;;;;6243488;23;20040;-71
2021/03/14 05:13:35;;;;;;;3.22;1.15;;;22.80;68.40;;;;;;6242370;23;20020;-71
2021/03/14 05:16:41;;;;;;;3.80;0.82;;;22.80;68.40;;;;;;6240617;23;20447;-70
2021/03/14 05:19:47;;;;;;;6.35;1.15;;;22.80;68.50;;;;;;6242733;23;20505;-69
2021/03/14 05:22:53;;;;;;;6.53;2.88;;;22.80;68.40;;;;;;6242520;23;20011;-70
2021/03/14 05:26:00;;;;;;;10.77;6.13;;;22.80;68.50;;;;;;6241881;23;20079;-71
2021/03/14 05:29:06;;;;;;;9.23;5.72;;;22.80;68.60;;;;;;6242484;23;20099;-71
2021/03/14 05:31:40;;;;;;;7.88;3.20;;;22.80;68.60;;;;;;6243272;23;20007;-70
2021/03/14 05:34:10;;;;;;;6.15;2.30;;;22.80;68.50;;;;;;6243192;23;20000;-69
2021/03/14 05:36:36;;;;;;;4.88;1.85;;;22.80;68.50;;;;;;6242822;23;20301;-69
2021/03/14 05:39:05;;;;;;;3.63;1.35;;;22.80;68.50;;;;;;6242995;23;20003;-71
2021/03/14 05:41:34;;;;;;;8.20;2.13;;;22.80;68.30;;;;;;6214054;23;20309;-70
2021/03/14 05:44:01;;;;;;;2.95;1.17;;;22.80;68.20;;;;;;6242977;23;20326;-71
2021/03/14 05:46:28;;;;;;;5.72;1.58;;;22.80;68.30;;;;;;6241720;23;20012;-72
2021/03/14 05:48:55;;;;;;;6.90;1.10;;;22.80;68.20;;;;;;6243130;23;20003;-71
2021/03/14 05:51:27;;;;;;;3.38;1.20;;;22.80;68.20;;;;;;6242073;23;20043;-69
2021/03/14 05:53:56;;;;;;;5.72;1.45;;;22.80;68.20;;;;;;6243030;23;20075;-71
2021/03/14 05:56:24;;;;;;;4.75;0.90;;;22.70;68.10;;;;;;6242126;23;20016;-72
2021/03/14 05:58:52;;;;;;;5.35;1.13;;;22.80;68.10;;;;;;6241512;23;20457;-71
2021/03/14 06:01:28;;;;;;;2.92;1.25;;;22.80;68.10;;;;;;6243278;23;20099;-72
2021/03/14 06:03:56;;;;;;;4.28;1.23;;;22.80;68.10;;;;;;6241640;23;20490;-69
2021/03/14 06:06:23;;;;;;;5.38;1.90;;;22.80;68.10;;;;;;6215132;23;20016;-71
2021/03/14 06:08:53;;;;;;;2.58;0.88;;;22.80;68.10;;;;;;6241559;23;20388;-71
2021/03/14 06:11:20;;;;;;;1.85;0.95;;;22.80;68.00;;;;;;6242492;23;20011;-71
2021/03/14 06:13:47;;;;;;;5.22;1.50;;;22.80;67.90;;;;;;6242743;23;19996;-72
2021/03/14 06:16:15;;;;;;;2.90;1.20;;;22.80;67.90;;;;;;6242589;23;20000;-70
2021/03/14 06:18:42;;;;;;;4.30;1.88;;;22.80;67.80;;;;;;6243184;23;19996;-70
2021/03/14 06:21:28;;;;;;;2.97;0.90;;;22.90;67.80;;;;;;6242380;23;20043;-71
2021/03/14 06:24:04;;;;;;;3.55;0.95;;;22.90;67.70;;;;;;6243636;23;20371;-71
2021/03/14 06:26:34;;;;;;;3.40;0.82;;;22.90;67.60;;;;;;6214770;23;20317;-74
2021/03/14 06:29:20;;;;;;;3.03;2.10;;;22.90;67.50;;;;;;6241647;23;20071;-73
2021/03/14 06:31:55;;;;;;;4.07;2.63;;;22.90;67.40;;;;;;6241944;23;19996;-73
2021/03/14 06:34:32;;;;;;;4.10;2.22;;;22.90;67.30;;;;;;6240966;23;20008;-74
2021/03/14 06:37:08;;;;;;;4.28;3.15;;;22.90;67.20;;;;;;6242364;23;20000;-71
2021/03/14 06:39:37;;;;;;;6.00;1.58;;;22.90;67.80;;;;;;6241512;23;20011;-71
2021/03/14 06:42:04;;;;;;;4.63;1.50;;;22.90;67.00;;;;;;6240468;23;20371;-72
2021/03/14 06:44:34;;;;;;;5.40;2.97;;;22.90;66.90;;;;;;6241208;23;20004;-71
2021/03/14 06:47:01;;;;;;;6.10;3.38;;;23.00;66.70;;;;;;6239941;23;20011;-72
2021/03/14 06:49:30;;;;;;;5.13;2.55;;;23.00;67.10;;;;;;6241448;23;20079;-68
2021/03/14 06:51:58;;;;;;;6.97;2.08;;;23.00;66.20;;;;;;6239462;23;20081;-71
2021/03/14 06:54:39;;;;;;;3.33;1.52;;;23.00;65.90;;;;;;6240913;23;20478;-74
2021/03/14 06:57:48;;;;;;;6.45;1.77;;;23.00;65.60;;;;;;6240151;23;20066;-73
2021/03/14 07:00:20;;;;;;;7.60;4.07;;;23.00;65.40;;;;;;6240111;23;20321;-71
2021/03/14 07:02:47;;;;;;;6.15;1.70;;;23.10;65.30;;;;;;6240663;23;20000;-74
2021/03/14 07:05:13;;;;;;;4.72;2.80;;;23.10;65.10;;;;;;6240465;23;20004;-74
2021/03/14 07:07:42;;;;;;;7.70;3.30;;;23.10;65.00;;;;;;6241106;23;20012;-71
2021/03/14 07:10:17;;;;;;;4.63;2.75;;;23.10;64.90;;;;;;6214276;23;20404;-77
2021/03/14 07:12:44;;;;;;;;;;;23.10;64.70;;;;;;6241012;23;20080;-71
2021/03/14 07:15:10;;;;;;;5.07;1.83;;;23.10;64.40;;;;;;6241267;23;19899;-74
2021/03/14 07:17:37;;;;;;;3.05;1.50;;;23.10;64.00;;;;;;6240088;23;20082;-77
2021/03/14 07:20:10;;;;;;;5.57;1.73;;;23.20;63.70;;;;;;6241211;23;20242;-71
2021/03/14 07:22:38;;;;;;;2.45;1.40;;;23.20;63.40;;;;;;6238778;23;19997;-69
2021/03/14 07:25:19;;;;;;;2.40;1.48;;;23.20;63.10;;;;;;6241185;23;20088;-74
2021/03/14 07:27:46;;;;;;;3.53;0.90;;;23.20;63.00;;;;;;6241575;23;20012;-70
2021/03/14 07:30:13;;;;;;;4.15;1.20;;;23.20;62.90;;;;;;6239183;23;20091;-71
2021/03/14 07:32:41;;;;;;;2.80;1.00;;;23.20;62.80;;;;;;6241207;23;20024;-73
2021/03/14 07:35:09;;;;;;;4.38;1.30;;;23.20;62.60;;;;;;6240318;23;20076;-73
2021/03/14 07:37:41;;;;;;;4.75;1.08;;;23.20;62.60;;;;;;6214436;23;20343;-70
2021/03/14 07:40:12;;;;;;;1.92;0.98;;;23.20;62.50;;;;;;6240166;23;20474;-72
2021/03/14 07:42:40;;;;;;;7.45;1.63;;;23.30;62.60;;;;;;6240520;23;20004;-72
2021/03/14 07:45:09;;;;;;;2.35;1.10;;;23.20;62.50;;;;;;6241102;23;20004;-69
2021/03/14 07:47:40;;;;;;;6.68;1.25;;;23.20;62.40;;;;;;6238441;23;20509;-69
2021/03/14 07:50:12;;;;;;;3.05;0.98;;;23.30;62.50;;;;;;6240918;23;20058;-70
2021/03/14 07:52:41;;;;;;;1.95;0.90;;;23.30;62.60;;;;;;6238141;23;20008;-71
2021/03/14 07:55:14;;;;;;;3.55;1.20;;;23.30;62.70;;;;;;6241043;23;20022;-71
2021/03/14 07:57:45;;;;;;;2.85;1.27;;;23.30;62.70;;;;;;6240733;23;20020;-67
2021/03/14 08:00:24;;;;;;;3.83;1.88;;;23.30;62.70;;;;;;6240086;23;20011;-70
2021/03/14 08:03:10;;;;;;;3.20;1.00;;;23.30;62.60;;;;;;6241628;23;20008;-71
2021/03/14 08:05:39;;;;;;;3.33;1.27;;;23.40;62.70;;;;;;6240128;23;20011;-72
2021/03/14 08:08:11;;;;;;;1.67;1.10;;;23.40;62.80;;;;;;6241070;23;20075;-74
2021/03/14 08:10:44;;;;;;;6.60;1.35;;;23.40;62.60;;;;;;6241173;23;20007;-69
2021/03/14 08:13:41;;;;;;;12.82;2.47;;;23.40;62.60;;;;;;6239662;23;20057;-71
2021/03/14 08:16:09;;;;;;;29.52;4.35;;;23.40;62.60;;;;;;6242303;23;20062;-70
2021/03/14 08:18:48;;;;;;;19.48;3.00;;;23.50;62.60;;;;;;6238093;23;20016;-77
2021/03/14 08:21:21;;;;;;;10.63;2.40;;;23.50;62.30;;;;;;6239223;23;20008;-74
2021/03/14 08:23:47;;;;;;;7.38;1.95;;;23.50;62.90;;;;;;6240539;23;20004;-74
2021/03/14 08:26:27;;;;;;;7.15;2.05;;;23.50;62.60;;;;;;6238971;23;20008;-72
2021/03/14 08:28:58;;;;;;;6.45;2.03;;;23.60;62.40;;;;;;6240468;23;20062;-72
2021/03/14 08:31:44;;;;;;;5.07;1.67;;;23.60;62.20;;;;;;6239469;23;19996;-71
2021/03/14 08:34:24;;;;;;;10.13;1.20;;;23.60;62.20;;;;;;6240166;23;20000;-71
2021/03/14 08:36:51;;;;;;;5.22;1.00;;;23.60;62.20;;;;;;6241013;23;20017;-73
2021/03/14 08:39:49;;;;;;;5.72;0.85;;;23.60;62.20;;;;;;6239405;23;19996;-73
2021/03/14 08:42:44;;;;;;;5.25;1.25;;;23.60;62.20;;;;;;6239306;23;20039;-74
2021/03/14 08:45:30;;;;;;;4.53;1.80;;;23.60;62.20;;;;;;6215567;23;20027;-71
2021/03/14 08:47:57;;;;;;;8.07;1.98;;;23.70;62.40;;;;;;6238812;23;20023;-71
2021/03/14 08:50:25;;;;;;;9.63;2.55;;;23.70;63.10;;;;;;6240399;23;19996;-77
2021/03/14 08:52:52;;;;;;;5.20;2.30;;;23.70;62.60;;;;;;6239915;23;20028;-76
2021/03/14 08:55:22;;;;;;;7.72;1.52;;;23.70;62.60;;;;;;6241049;23;20079;-77
2021/03/14 08:57:49;;;;;;;5.72;1.50;;;23.70;62.70;;;;;;6238953;23;20023;-74
2021/03/14 09:00:16;;;;;;;4.40;1.50;;;23.70;62.60;;;;;;6239938;23;20000;-72
2021/03/14 09:02:46;;;;;;;4.30;1.52;;;23.70;62.60;;;;;;6239784;23;20309;-71
2021/03/14 09:05:14;;;;;;;3.47;1.40;;;23.80;62.40;;;;;;6238995;23;19996;-72
2021/03/14 09:07:41;;;;;;;5.57;1.55;;;23.80;62.30;;;;;;6240245;23;20012;-72
2021/03/14 09:10:09;;;;;;;9.23;5.85;;;23.80;62.30;;;;;;6240034;23;20007;-72
2021/03/14 09:12:36;;;;;;;9.18;5.70;;;23.90;62.10;;;;;;6239400;23;20000;-74
2021/03/14 09:15:07;;;;;;;7.38;5.50;;;23.90;62.10;;;;;;6238558;23;19996;-72
2021/03/14 09:17:39;;;;;;;5.47;3.72;;;23.90;62.10;;;;;;6239283;23;20001;-74
2021/03/14 09:20:07;;;;;;;5.43;2.65;;;23.90;62.10;;;;;;6241426;23;20004;-72
2021/03/14 09:22:36;;;;;;;4.15;1.98;;;23.90;62.10;;;;;;6239061;23;19997;-73
2021/03/14 09:25:07;;;;;;;5.88;1.83;;;23.90;62.10;;;;;;6213487;23;20454;-72
2021/03/14 09:27:34;;;;;;;3.92;1.20;;;23.90;62.10;;;;;;6238050;23;20012;-71
2021/03/14 09:30:17;;;;;;;2.67;1.40;;;23.90;62.20;;;;;;6239433;23;20008;-71
2021/03/14 09:32:50;;;;;;;4.80;1.50;;;23.90;62.20;;;;;;6240367;23;20001;-72
2021/03/14 09:35:22;;;;;;;4.68;1.38;;;24.00;62.50;;;;;;6240639;23;20004;-71
2021/03/14 09:38:09;;;;;;;6.18;1.08;;;24.00;62.40;;;;;;6242329;23;20004;-71
2021/03/14 09:40:40;;;;;;;8.13;1.35;;;24.00;62.40;;;;;;6240869;23;20008;-70
2021/03/14 09:43:09;;;;;;;5.82;1.65;;;24.00;62.50;;;;;;6241563;23;20015;-70
2021/03/14 09:45:37;;;;;;;10.77;2.80;;;24.00;62.50;;;;;;6241163;23;20007;-71
2021/03/14 09:48:23;;;;;;;6.22;1.73;;;24.00;62.50;;;;;;6240785;23;20526;-72
2021/03/14 09:51:05;;;;;;;;;;;24.00;62.60;;;;;;6241530;23;20028;-68
2021/03/14 09:53:39;;;;;;;3.03;1.48;;;24.00;62.60;;;;;;6240856;23;19899;-69
2021/03/14 09:56:14;;;;;;;5.13;1.58;;;24.10;62.90;;;;;;6240800;23;20730;-69
2021/03/14 09:58:41;;;;;;;8.25;1.38;;;24.10;62.90;;;;;;6241210;23;20004;-69
2021/03/14 10:01:09;;;;;;;5.25;1.58;;;24.10;63.00;;;;;;6240904;23;20032;-69
2021/03/14 10:03:36;;;;;;;5.85;1.58;;;24.10;63.00;;;;;;6241923;23;20462;-69
2021/03/14 10:06:48;;;;;;;3.70;1.10;;;24.10;63.00;;;;;;6240441;23;20343;-71
2021/03/14 10:10:03;;;;;;;3.28;1.52;;;24.10;62.80;;;;;;6239227;23;20012;-71
2021/03/14 10:13:09;;;;;;;7.22;4.60;;;24.10;62.70;;;;;;6241284;23;20322;-71
2021/03/14 10:16:16;;;;;;;8.13;4.03;;;24.10;62.70;;;;;;6241434;23;20020;-71
2021/03/14 10:19:22;;;;;;;10.90;5.20;;;24.10;62.50;;;;;;6241296;23;20008;-70
2021/03/14 10:22:28;;;;;;;16.52;9.05;;;24.10;62.80;;;;;;6242501;23;20423;-70
2021/03/14 10:25:42;;;;;;;14.48;8.50;;;24.10;62.70;;;;;;6242673;23;20436;-70
2021/03/14 10:28:09;;;;;;;10.35;6.65;;;24.10;62.80;;;;;;6240953;23;20015;-72
2021/03/14 10:31:15;;;;;;;11.63;7.40;;;24.10;63.00;;;;;;6242130;23;20038;-70
2021/03/14 10:34:01;;;;;;;;;;;24.10;63.20;;;;;;6240853;23;20012;-70
2021/03/14 10:37:07;;;;;;;6.35;4.10;;;24.10;63.20;;;;;;6239401;23;19914;-70
2021/03/14 10:40:19;;;;;;;9.35;4.30;;;24.10;63.40;;;;;;6240611;23;20031;-75
2021/03/14 10:43:25;;;;;;;9.77;4.05;;;24.10;63.60;;;;;;6215258;23;20084;-70
2021/03/14 10:46:31;;;;;;;8.15;3.88;;;24.10;63.70;;;;;;6238480;23;20073;-72
2021/03/14 10:49:23;;;;;;;11.43;6.32;;;24.10;63.80;;;;;;6238301;23;20428;-70
2021/03/14 10:52:29;;;;;;;17.60;10.68;;;24.10;63.80;;;;;;6241064;23;20011;-71
2021/03/14 10:55:42;;;;;;;31.15;21.45;;;24.10;63.90;;;;;;6240816;23;20450;-71
2021/03/14 10:58:15;;;;;;;30.60;20.77;;;24.00;64.00;;;;;;6227314;23;20016;-71
2021/03/14 11:00:51;;;;;;;30.27;20.92;;;24.00;64.00;;;;;;6241572;23;20004;-71
2021/03/14 11:03:31;;;;;;;26.88;20.83;;;24.00;64.10;;;;;;6241061;23;20004;-73
2021/03/14 11:06:12;;;;;;;27.20;17.30;;;24.00;64.10;;;;;;6240829;23;20428;-74
2021/03/14 11:08:54;;;;;;;28.67;20.40;;;24.00;64.20;;;;;;6242226;23;20011;-72
2021/03/14 11:11:28;;;;;;;25.33;15.70;;;24.00;64.30;;;;;;6240875;23;20359;-73
2021/03/14 11:13:56;;;;;;;21.67;13.20;;;24.00;64.50;;;;;;6242257;23;19997;-76
2021/03/14 11:16:25;;;;;;;13.65;9.75;;;24.00;64.60;;;;;;6240573;23;20439;-73
2021/03/14 11:19:01;;;;;;;15.68;8.63;;;24.00;64.70;;;;;;6241240;23;20007;-73
2021/03/14 11:21:27;;;;;;;13.73;8.32;;;24.00;64.80;;;;;;6241940;23;20011;-72
2021/03/14 11:23:53;;;;;;;10.95;7.82;;;24.00;64.80;;;;;;6240374;23;20031;-72
2021/03/14 11:26:20;;;;;;;13.93;8.65;;;23.90;64.90;;;;;;6240465;23;20027;-72
2021/03/14 11:28:49;;;;;;;14.23;7.80;;;24.00;65.10;;;;;;6239636;23;20407;-76
2021/03/14 11:31:55;;;;;;;12.52;7.05;;;23.90;65.00;;;;;;6241082;23;20000;-73
2021/03/14 11:35:01;;;;;;;10.65;5.18;;;23.90;65.20;;;;;;6241545;23;20000;-74
2021/03/14 11:37:27;;;;;;;8.77;4.18;;;23.90;65.40;;;;;;6243543;23;20428;-72
2021/03/14 11:39:54;;;;;;;5.95;3.15;;;23.90;65.50;;;;;;6241562;23;20005;-71
2021/03/14 11:42:21;;;;;;;9.95;2.78;;;23.90;65.70;;;;;;6241166;23;20592;-73
2021/03/14 11:44:47;;;;;;;9.07;2.75;;;23.90;65.70;;;;;;6241247;23;20027;-75
2021/03/14 11:47:14;;;;;;;4.95;1.80;;;23.90;65.60;;;;;;6242554;23;20087;-78
2021/03/14 11:49:40;;;;;;;11.00;3.28;;;23.90;65.60;;;;;;6241011;23;20432;-72
2021/03/14 11:52:07;;;;;;;7.32;2.40;;;23.90;65.50;;;;;;6240057;23;20030;-72
2021/03/14 11:54:33;;;;;;;5.70;1.83;;;23.90;65.40;;;;;;6239119;23;20114;-72
2021/03/14 11:57:00;;;;;;;7.55;2.08;;;24.00;65.30;;;;;;6241970;23;20498;-76
2021/03/14 11:59:27;;;;;;;13.75;2.38;;;24.00;65.20;;;;;;6240072;23;20328;-73
2021/03/14 12:01:54;;;;;;;6.82;1.80;;;24.10;65.00;;;;;;6242098;23;20050;-72
2021/03/14 12:04:22;;;;;;;6.82;1.90;;;24.10;64.80;;;;;;6241611;23;20004;-72
2021/03/14 12:06:49;;;;;;;5.60;1.80;;;24.10;64.70;;;;;;6240743;23;20065;-73
2021/03/14 12:09:15;;;;;;;6.10;1.77;;;24.20;64.60;;;;;;6241935;23;20462;-74
2021/03/14 12:11:43;;;;;;;5.28;2.25;;;24.30;64.50;;;;;;6241234;23;20011;-71
2021/03/14 12:14:10;;;;;;;8.20;2.58;;;24.30;64.10;;;;;;6245514;23;20024;-82
2021/03/14 12:16:37;;;;;;;2.92;1.92;;;24.40;64.60;;;;;;6212471;23;20062;-72
2021/03/14 12:19:03;;;;;;;7.35;1.98;;;24.40;63.70;;;;;;6240693;23;20457;-73
2021/03/14 12:21:30;;;;;;;5.68;1.65;;;24.50;63.30;;;;;;6239851;23;20028;-74
2021/03/14 12:23:57;;;;;;;6.65;1.60;;;24.50;63.10;;;;;;6239280;23;20022;-75
2021/03/14 12:26:23;;;;;;;5.53;1.42;;;24.60;63.00;;;;;;6214368;23;20011;-75
2021/03/14 12:28:50;;;;;;;4.95;1.40;;;24.50;62.90;;;;;;6212530;23;20014;-76
2021/03/14 12:31:16;;;;;;;3.25;1.40;;;24.50;62.70;;;;;;6241739;23;20083;-74
2021/03/14 12:33:44;;;;;;;2.85;1.48;;;24.50;62.60;;;;;;6240585;23;20050;-77
2021/03/14 12:36:13;;;;;;;3.55;1.40;;;24.50;62.60;;;;;;6241469;23;20043;-73
2021/03/14 12:38:40;;;;;;;4.32;2.03;;;24.50;62.70;;;;;;6239142;23;20000;-74
2021/03/14 12:41:06;;;;;;;6.20;0.98;;;24.50;62.70;;;;;;6239822;23;20003;-75
2021/03/14 12:43:33;;;;;;;3.17;1.08;;;24.40;62.70;;;;;;6240327;23;19996;-74
2021/03/14 12:46:00;;;;;;;3.63;1.42;;;24.40;62.70;;;;;;6240337;23;20091;-73
2021/03/14 12:48:26;;;;;;;4.57;1.48;;;24.40;62.80;;;;;;6241716;23;20027;-75
2021/03/14 12:50:53;;;;;;;3.72;1.40;;;24.40;62.90;;;;;;6240414;23;20066;-72
2021/03/14 12:53:19;;;;;;;4.50;0.93;;;24.30;63.00;;;;;;6242090;23;20066;-74
2021/03/14 12:55:46;;;;;;;5.82;1.83;;;24.30;63.10;;;;;;6240788;23;20393;-78
2021/03/14 12:58:13;;;;;;;4.63;1.42;;;24.30;63.20;;;;;;6241342;23;20321;-77
2021/03/14 13:00:40;;;;;;;3.05;1.00;;;24.30;63.50;;;;;;6241491;23;20004;-82
2021/03/14 13:03:06;;;;;;;3.42;1.20;;;24.20;63.70;;;;;;6239138;23;20004;-81
2021/03/14 13:05:33;;;;;;;7.47;1.42;;;24.20;64.10;;;;;;6239740;23;20004;-75
2021/03/14 13:08:00;;;;;;;4.93;1.50;;;24.20;64.50;;;;;;6239779;23;20061;-78
2021/03/14 13:10:27;;;;;;;7.78;1.20;;;24.20;64.60;;;;;;6242482;23;20001;-80
2021/03/14 13:12:54;;;;;;;6.43;2.00;;;24.20;65.60;;;;;;6242417;23;19996;-78
2021/03/14 13:15:21;;;;;;;3.95;1.42;;;24.10;65.30;;;;;;6243666;23;20362;-78
2021/03/14 13:17:48;;;;;;;4.68;1.30;;;24.10;65.60;;;;;;6243887;23;20000;-73
2021/03/14 13:20:17;;;;;;;4.38;1.67;;;24.10;65.80;;;;;;6243191;23;20000;-78
2021/03/14 13:22:44;;;;;;;5.43;1.60;;;24.10;65.90;;;;;;6243539;23;20003;-75
2021/03/14 13:25:12;;;;;;;6.00;1.50;;;24.00;65.90;;;;;;6242456;23;20296;-74
2021/03/14 13:27:39;;;;;;;4.57;1.33;;;24.00;65.90;;;;;;6241646;23;20091;-73
2021/03/14 13:30:08;;;;;;;3.67;1.95;;;24.00;65.90;;;;;;6241324;23;19997;-72
2021/03/14 13:32:34;;;;;;;6.18;1.88;;;24.00;66.20;;;;;;6243308;23;20481;-72
2021/03/14 13:35:01;;;;;;;4.70;2.20;;;24.00;66.50;;;;;;6242637;23;19996;-72
2021/03/14 13:37:28;;;;;;;4.97;2.28;;;23.90;67.20;;;;;;6241146;23;20038;-71
2021/03/14 13:39:54;;;;;;;5.60;2.00;;;23.90;66.80;;;;;;6243224;23;20328;-71
2021/03/14 13:42:21;;;;;;;7.80;2.05;;;23.90;67.10;;;;;;6241562;23;20368;-71
2021/03/14 13:44:47;;;;;;;11.43;2.17;;;23.90;67.30;;;;;;6242784;23;20420;-72
2021/03/14 13:47:14;;;;;;;5.07;2.17;;;23.80;67.40;;;;;;6240435;23;20047;-72
2021/03/14 13:49:40;;;;;;;4.15;1.67;;;23.80;67.70;;;;;;6242823;23;20000;-72
2021/03/14 13:52:07;;;;;;;7.00;2.75;;;23.90;67.90;;;;;;6242735;23;20015;-70
2021/03/14 13:54:33;;;;;;;2.72;1.92;;;23.80;67.90;;;;;;6242804;23;20450;-71
2021/03/14 13:57:00;;;;;;;8.75;2.88;;;23.90;68.10;;;;;;6242564;23;20023;-70
2021/03/14 13:59:26;;;;;;;5.10;2.90;;;23.90;68.50;;;;;;6242096;23;20359;-69
2021/03/14 14:01:53;;;;;;;7.90;3.53;;;23.90;68.70;;;;;;6242455;23;20308;-69
2021/03/14 14:04:19;;;;;;;6.05;3.13;;;23.90;68.90;;;;;;6241629;23;20416;-70
2021/03/14 14:06:46;;;;;;;11.25;3.47;;;23.90;68.90;;;;;;6243295;23;20297;-70
2021/03/14 14:09:13;;;;;;;8.68;3.85;;;23.90;68.90;;;;;;6240641;23;20001;-69
2021/03/14 14:11:39;;;;;;;10.55;4.10;;;23.90;69.00;;;;;;6239932;23;20007;-70
2021/03/14 14:14:06;;;;;;;8.38;3.38;;;24.00;68.90;;;;;;6242264;23;20415;-71
2021/03/14 14:16:35;;;;;;;9.35;3.47;;;24.00;68.90;;;;;;6242667;23;19988;-79
2021/03/14 14:19:03;;;;;;;9.52;2.30;;;24.00;69.00;;;;;;6242962;23;20008;-75
2021/03/14 14:21:30;;;;;;;7.82;2.70;;;24.00;68.90;;;;;;6241694;23;20438;-70
2021/03/14 14:23:56;;;;;;;11.48;3.28;;;24.00;68.90;;;;;;6243522;23;20007;-69
2021/03/14 14:26:23;;;;;;;9.13;6.35;;;24.00;68.90;;;;;;6241529;23;20015;-70
2021/03/14 14:28:49;;;;;;;13.43;7.40;;;24.00;68.80;;;;;;6243587;23;20008;-71
2021/03/14 14:31:16;;;;;;;15.23;6.80;;;24.10;68.80;;;;;;6240226;23;19996;-69
2021/03/14 14:33:42;;;;;;;8.48;4.50;;;24.10;68.80;;;;;;6241928;23;20406;-71
2021/03/14 14:36:09;;;;;;;8.98;4.68;;;24.00;68.70;;;;;;6242393;23;20007;-70
2021/03/14 14:38:36;;;;;;;12.77;7.55;;;24.10;68.60;;;;;;6239379;23;20688;-71
2021/03/14 14:41:02;;;;;;;11.68;6.22;;;24.10;68.50;;;;;;6241399;23;20301;-72
2021/03/14 14:43:29;;;;;;;12.27;7.07;;;24.10;68.40;;;;;;6240720;23;20429;-73
2021/03/14 14:45:55;;;;;;;10.77;5.95;;;24.10;68.30;;;;;;6242397;23;20371;-72
2021/03/14 14:48:22;;;;;;;11.05;4.97;;;24.10;68.20;;;;;;6241017;23;20051;-74
2021/03/14 14:50:48;;;;;;;10.50;4.03;;;24.10;68.10;;;;;;6241950;23;20047;-75
2021/03/14 14:53:15;;;;;;;6.38;3.00;;;24.10;67.90;;;;;;6242469;23;20011;-76
2021/03/14 14:55:43;;;;;;;9.50;4.40;;;24.10;67.70;;;;;;6240594;23;20777;-79
2021/03/14 14:58:49;;;;;;;6.40;2.63;;;24.10;67.60;;;;;;6241636;23;20321;-77
2021/03/14 15:01:15;;;;;;;;;;;24.10;67.40;;;;;;6240872;23;20004;-77
2021/03/14 15:03:42;;;;;;;9.43;3.65;;;24.10;67.40;;;;;;6241237;23;19931;-78
2021/03/14 15:06:08;;;;;;;10.05;2.72;;;24.10;67.30;;;;;;6214711;23;20328;-70
2021/03/14 15:08:35;;;;;;;11.38;3.20;;;24.10;67.40;;;;;;6239607;23;20016;-71
2021/03/14 15:11:02;;;;;;;8.65;3.35;;;24.10;67.40;;;;;;6241453;23;20004;-71
2021/03/14 15:13:28;;;;;;;9.10;2.72;;;24.00;67.40;;;;;;6239953;23;20446;-72
2021/03/14 15:15:55;;;;;;;11.80;3.03;;;24.00;67.40;;;;;;6241427;23;20083;-74
2021/03/14 15:55:16;;;;;;;7.57;2.40;;;23.80;66.80;;;;;;6199358;22;20028;-69
2021/03/14 15:58:22;;;;;;;10.30;2.63;;;23.80;67.10;;;;;;6208127;23;20008;-69
2021/03/14 16:00:48;;;;;;;;;;;23.80;67.30;;;;;;6182513;23;20336;-77
2021/03/14 16:03:15;;;;;;;9.43;3.47;;;23.70;67.60;;;;;;6199325;23;19900;-75
2021/03/14 16:05:41;;;;;;;8.90;3.42;;;23.70;67.70;;;;;;6207831;23;20436;-80
2021/03/14 16:08:08;;;;;;;9.07;3.92;;;23.70;67.90;;;;;;6207020;23;20021;-78
2021/03/14 16:10:35;;;;;;;11.88;3.42;;;23.70;68.00;;;;;;6208087;23;20036;-77
2021/03/14 16:13:01;;;;;;;7.78;2.22;;;23.70;68.20;;;;;;6207811;23;20428;-81
2021/03/14 16:15:28;;;;;;;5.07;2.25;;;23.70;68.30;;;;;;6209597;23;20001;-80
2021/03/14 16:17:54;;;;;;;5.38;2.78;;;23.60;68.30;;;;;;6207613;23;20012;-79
2021/03/14 16:20:21;;;;;;;5.57;2.05;;;23.60;68.40;;;;;;6208117;23;20001;-78
2021/03/14 16:22:47;;;;;;;9.63;2.25;;;23.60;68.40;;;;;;6207873;23;20454;-74
2021/03/14 16:25:14;;;;;;;6.68;2.80;;;23.60;68.30;;;;;;6210299;23;20008;-78
2021/03/14 16:27:41;;;;;;;3.75;1.77;;;23.60;68.30;;;;;;6205946;23;20039;-79
2021/03/14 16:30:08;;;;;;;7.18;4.13;;;23.60;68.30;;;;;;6206652;23;20005;-81
2021/03/14 16:32:35;;;;;;;6.43;3.67;;;23.60;68.20;;;;;;6207940;23;20032;-79
2021/03/14 16:35:02;;;;;;;4.93;2.42;;;23.50;68.10;;;;;;6208375;23;19996;-79
2021/03/14 16:37:29;;;;;;;3.95;1.65;;;23.60;68.20;;;;;;6208169;23;20432;-78
2021/03/14 16:39:55;;;;;;;7.53;2.22;;;23.50;68.10;;;;;;6208398;23;20001;-79
2021/03/14 16:42:23;;;;;;;5.07;1.85;;;23.50;68.10;;;;;;6182352;23;20589;-83
2021/03/14 16:44:49;;;;;;;3.42;1.80;;;23.50;68.30;;;;;;6207964;23;20458;-81
2021/03/14 16:47:16;;;;;;;4.80;1.33;;;23.50;69.10;;;;;;6210923;23;20019;-82
2021/03/14 16:49:43;;;;;;;8.45;3.80;;;23.50;68.80;;;;;;6210038;23;20759;-80
2021/03/14 16:52:10;;;;;;;7.57;1.73;;;23.50;68.90;;;;;;6210883;23;20008;-82